Liezen, Austria
Current Conditions -  °F | °C
As of 10:50 PM on Saturday 25 Oct 2014 (Local Time) from LOXZ Reporting Station
Overcast Overcast  
Wind Chill: 45°   Ceiling: 3000
Heat Index: 45°   Visibility: 13mi
Dew Point: 41°   Wind: 1mph
Humidity: 87%   Direction: NA
Pressure: 30.24"   Gusts: NA
Location:  47.57°N, 14.24°E
Report Text: LOXZ 252050Z VRB01KT 20KM OVC030SC 07/05 Q1024 RMK OVC
Loading
Personal Weather Stations






























Interactive Weather Map
Tropical Storm Tracking
New forecast layout! Learn more

10-Day Weather Forecast

Advertisements
Track Severe Weather on mobile